Time;durP1;ratioP1;P1;durP2;ratioP2;P2;SDS_P1;SDS_P2;PMS_P1;PMS_P2;Temp;Humidity;BMP_temperature;BMP_pressure;BME280_temperature;BME280_humidity;BME280_pressure;Samples;Min_cycle;Max_cycle;Signal;HPM_P1;HPM_P2
2023/06/03 00:02:14;;;;;;;29.63;18.45;;;;;;;16.11;83.58;98832.00;6140248;23;20020;-87
2023/06/03 00:04:43;;;;;;;27.23;17.55;;;;;;;16.15;82.79;98825.38;6215326;23;20361;-86
2023/06/03 00:07:09;;;;;;;32.13;19.73;;;;;;;15.94;83.89;98842.25;6188683;23;20028;-87
2023/06/03 00:09:35;;;;;;;38.42;20.10;;;;;;;15.86;83.98;98826.75;6139738;23;20016;-86
2023/06/03 00:12:01;;;;;;;37.15;21.13;;;;;;;16.02;84.52;98840.47;6139733;23;20096;-87
2023/06/03 00:14:27;;;;;;;37.40;22.23;;;;;;;15.98;84.18;98825.81;6139536;23;20020;-87
2023/06/03 00:16:53;;;;;;;35.72;21.30;;;;;;;16.10;84.63;98846.94;6214989;23;20530;-87
2023/06/03 00:19:19;;;;;;;39.42;22.38;;;;;;;15.98;84.20;98836.81;6139500;23;20021;-85
2023/06/03 00:21:46;;;;;;;39.08;23.35;;;;;;;16.00;84.47;98859.34;6188520;23;20354;-87
2023/06/03 00:24:13;;;;;;;47.50;25.60;;;;;;;15.92;84.24;98860.31;6139284;23;20016;-87
2023/06/03 00:26:39;;;;;;;44.63;26.08;;;;;;;16.01;84.84;98882.19;6164710;23;20020;-88
2023/06/03 00:29:05;;;;;;;53.43;28.07;;;;;;;15.96;84.50;98877.75;6215285;23;20386;-87
2023/06/03 00:31:32;;;;;;;49.05;26.00;;;;;;;15.95;84.13;98884.41;6164110;23;20327;-85
2023/06/03 00:33:57;;;;;;;51.67;26.77;;;;;;;15.96;84.57;98877.75;6188094;23;20470;-88
2023/06/03 00:36:23;;;;;;;53.25;27.83;;;;;;;15.96;83.88;98884.06;6163296;23;20051;-87
2023/06/03 00:38:49;;;;;;;53.00;27.33;;;;;;;16.06;83.54;98879.94;6139565;23;20020;-84
2023/06/03 00:41:15;;;;;;;58.03;28.60;;;;;;;16.06;83.97;98887.41;6187814;23;20430;-88
2023/06/03 00:43:41;;;;;;;62.35;28.73;;;;;;;16.00;83.61;98877.84;6214514;23;20020;-85
2023/06/03 00:46:10;;;;;;;64.35;28.05;;;;;;;15.78;82.78;98857.25;6214528;23;20067;-85
2023/06/03 00:48:39;;;;;;;63.85;29.42;;;;;;;15.72;82.90;98860.28;6187379;23;20074;-84
2023/06/03 00:51:06;;;;;;;58.35;28.73;;;;;;;15.65;82.36;98851.81;6138829;23;20016;-84
2023/06/03 00:53:32;;;;;;;;;;;;;;;15.86;83.02;98870.84;6214552;23;20039;-84
2023/06/03 00:55:59;;;;;;;54.50;26.60;;;;;;;15.72;82.29;98849.25;6162989;23;19916;-85
2023/06/03 00:58:25;;;;;;;58.83;27.50;;;;;;;15.83;83.07;98862.50;6187927;23;20331;-87
2023/06/03 01:00:51;;;;;;;55.78;28.63;;;;;;;15.90;82.45;98862.66;6138907;23;20342;-84
2023/06/03 01:03:19;;;;;;;62.00;29.23;;;;;;;15.77;82.60;98839.91;6163125;23;20463;-84
2023/06/03 01:06:14;;;;;;;57.28;27.50;;;;;;;15.84;82.03;98855.81;6214295;23;20472;-84
2023/06/03 01:09:20;;;;;;;63.97;27.58;;;;;;;15.91;82.26;98856.78;6167696;23;20032;-86
2023/06/03 01:12:10;;;;;;;57.50;25.67;;;;;;;15.92;80.63;98861.09;6157633;23;20108;-84
2023/06/03 01:14:53;;;;;;;58.17;25.75;;;;;;;15.88;80.95;98853.94;6151217;23;20454;-84
2023/06/03 01:17:21;;;;;;;46.03;23.75;;;;;;;15.83;80.20;98829.41;6162871;23;20031;-84
2023/06/03 01:19:51;;;;;;;46.58;23.83;;;;;;;15.72;79.81;98829.94;6163161;23;20327;-84
2023/06/03 01:22:24;;;;;;;49.75;22.40;;;;;;;15.51;79.86;98834.94;6186673;23;20021;-84
2023/06/03 01:25:00;;;;;;;55.70;23.35;;;;;;;15.32;80.83;98824.66;6213870;23;20026;-85
2023/06/03 01:27:27;;;;;;;53.25;24.88;;;;;;;15.18;81.25;98813.31;6188539;23;20020;-86
2023/06/03 01:29:52;;;;;;;58.53;23.03;;;;;;;15.08;80.90;98831.16;6214066;23;20110;-89
2023/06/03 01:32:19;;;;;;;56.80;24.25;;;;;;;15.03;81.21;98821.22;6213341;23;20017;-85
2023/06/03 01:34:45;;;;;;;55.00;23.27;;;;;;;14.88;81.15;98818.44;6137988;23;20044;-88
2023/06/03 01:37:12;;;;;;;48.83;23.40;;;;;;;14.85;80.27;98817.19;6187366;23;20024;-88
2023/06/03 01:39:40;;;;;;;53.78;23.88;;;;;;;14.72;81.21;98816.47;6186855;23;20020;-86
2023/06/03 01:42:11;;;;;;;51.38;22.98;;;;;;;14.72;81.28;98804.66;6187004;23;20024;-86
2023/06/03 01:44:38;;;;;;;45.83;23.17;;;;;;;14.83;80.63;98813.97;6186018;23;20357;-85
2023/06/03 01:47:05;;;;;;;45.50;22.90;;;;;;;14.79;80.58;98789.13;6187351;23;20020;-88
2023/06/03 01:49:31;;;;;;;44.47;21.00;;;;;;;14.75;80.83;98795.72;6187699;23;20354;-87
2023/06/03 01:51:58;;;;;;;43.83;20.60;;;;;;;14.68;81.90;98809.28;6187682;23;20462;-85
2023/06/03 01:54:28;;;;;;;40.92;19.40;;;;;;;14.59;82.04;98809.44;6138001;23;20023;-85
2023/06/03 01:56:55;;;;;;;32.92;16.17;;;;;;;14.39;81.21;98804.91;6186994;23;20099;-85
2023/06/03 01:59:23;;;;;;;37.50;15.93;;;;;;;14.33;81.78;98829.09;6187398;23;20019;-89
2023/06/03 02:01:51;;;;;;;37.47;16.27;;;;;;;14.24;82.14;98822.97;6187108;23;20021;-85
2023/06/03 02:04:17;;;;;;;34.67;15.63;;;;;;;14.09;82.04;98824.50;6187162;23;20033;-87
2023/06/03 02:06:55;;;;;;;32.45;15.13;;;;;;;14.14;82.48;98845.44;6212972;23;20012;-86
2023/06/03 02:09:24;;;;;;;37.38;15.40;;;;;;;14.01;82.18;98831.75;6133103;23;20028;-85
2023/06/03 02:11:52;;;;;;;26.98;14.65;;;;;;;14.10;81.47;98850.84;6133014;23;20505;-86
2023/06/03 02:14:18;;;;;;;30.07;15.17;;;;;;;13.88;81.22;98834.88;6108933;23;20470;-87
2023/06/03 02:16:44;;;;;;;29.52;14.23;;;;;;;14.04;81.42;98855.00;6183209;23;20251;-90
2023/06/03 02:19:23;;;;;;;28.23;14.90;;;;;;;14.07;81.18;98848.78;6108320;23;20017;-87
2023/06/03 02:21:50;;;;;;;27.98;14.27;;;;;;;14.15;80.83;98874.53;6108967;23;20051;-88
2023/06/03 02:24:16;;;;;;;27.10;13.60;;;;;;;14.11;80.72;98877.19;6132862;23;20013;-86
2023/06/03 02:26:52;;;;;;;28.23;15.02;;;;;;;13.98;80.75;98876.41;6183121;23;20017;-86
2023/06/03 02:29:23;;;;;;;30.73;13.15;;;;;;;13.91;80.72;98854.22;6157083;23;20362;-87
2023/06/03 02:31:50;;;;;;;32.45;13.77;;;;;;;13.90;80.96;98851.78;6184453;23;20072;-87
2023/06/03 02:34:19;;;;;;;28.10;13.65;;;;;;;14.01;81.49;98874.91;6133505;23;20021;-84
2023/06/03 02:36:46;;;;;;;;;;;;;;;14.13;82.40;98880.38;6109348;23;20017;-88
2023/06/03 02:39:13;;;;;;;27.20;14.45;;;;;;;14.16;83.07;98887.13;6183816;23;19923;-82
2023/06/03 02:41:44;;;;;;;24.98;13.63;;;;;;;14.10;82.67;98881.88;6108807;23;20017;-83
2023/06/03 02:44:10;;;;;;;24.90;13.77;;;;;;;14.14;82.18;98879.25;6158039;23;20021;-93
2023/06/03 02:46:41;;;;;;;27.17;13.02;;;;;;;14.30;80.77;98888.38;6102074;23;20362;-84
2023/06/03 02:50:31;;;;;;;19.08;11.98;;;;;;;14.26;80.09;98892.94;6162243;23;20095;-85
2023/06/03 02:52:58;;;;;;;26.77;13.68;;;;;;;13.75;80.44;98832.13;6157664;23;20569;-85
2023/06/03 02:55:27;;;;;;;20.48;12.82;;;;;;;14.05;80.62;98893.09;6132740;23;20044;-85
2023/06/03 02:57:54;;;;;;;21.40;11.90;;;;;;;13.82;80.50;98861.78;6182986;23;20606;-84
2023/06/03 03:00:20;;;;;;;21.02;12.00;;;;;;;14.07;81.02;98895.50;6108444;23;20473;-86
2023/06/03 03:02:46;;;;;;;27.13;12.38;;;;;;;13.96;80.65;98877.91;6157449;23;20013;-85
2023/06/03 03:05:26;;;;;;;22.63;11.48;;;;;;;14.15;81.19;98891.84;6108547;23;20039;-86
2023/06/03 03:07:52;;;;;;;22.63;11.07;;;;;;;14.08;80.74;98872.38;6183337;23;20466;-85
2023/06/03 03:10:18;;;;;;;19.40;10.48;;;;;;;14.08;79.84;98872.38;6107560;23;20028;-85
2023/06/03 03:12:46;;;;;;;18.38;10.75;;;;;;;14.10;79.73;98870.91;6157701;23;20040;-87
2023/06/03 03:15:12;;;;;;;18.50;10.97;;;;;;;14.19;80.18;98884.47;6182363;23;20045;-86
2023/06/03 03:17:38;;;;;;;24.88;10.32;;;;;;;14.13;79.80;98883.13;6108384;23;20032;-86
2023/06/03 03:20:05;;;;;;;;;;;;;;;14.22;80.42;98881.03;6109337;23;20028;-86
2023/06/03 03:22:31;;;;;;;14.93;9.20;;;;;;;14.11;80.03;98863.44;6159329;23;20480;-86
2023/06/03 03:24:58;;;;;;;16.38;10.02;;;;;;;14.14;79.57;98878.41;6134246;23;20398;-86
2023/06/03 03:27:25;;;;;;;14.90;9.63;;;;;;;14.07;79.32;98890.00;6158744;23;20043;-85
2023/06/03 03:29:55;;;;;;;14.30;9.25;;;;;;;13.98;79.82;98878.34;6120530;23;20100;-87
2023/06/03 03:32:21;;;;;;;17.38;9.45;;;;;;;13.99;80.55;98883.50;6156149;23;20028;-86
2023/06/03 03:35:17;;;;;;;15.65;8.90;;;;;;;13.89;80.44;98883.19;6159260;23;20028;-86
2023/06/03 03:37:46;;;;;;;15.73;9.45;;;;;;;13.99;80.59;98888.19;6147069;23;20024;-86
2023/06/03 03:40:19;;;;;;;13.00;8.40;;;;;;;13.95;81.09;98863.34;6133597;23;20017;-85
2023/06/03 03:42:51;;;;;;;12.57;7.88;;;;;;;13.89;80.44;98861.19;6110252;23;20023;-86
2023/06/03 03:45:37;;;;;;;13.25;7.70;;;;;;;13.84;80.37;98876.78;6160361;23;20529;-89
2023/06/03 03:48:08;;;;;;;17.23;7.63;;;;;;;13.83;80.63;98890.84;6187430;23;20020;-86
2023/06/03 03:50:48;;;;;;;15.23;7.57;;;;;;;13.86;80.83;98882.72;6112871;23;20075;-90
2023/06/03 03:53:27;;;;;;;12.85;7.57;;;;;;;13.84;80.33;98879.53;6135620;23;20517;-89
2023/06/03 03:55:54;;;;;;;9.75;6.63;;;;;;;13.75;80.55;98867.06;6160420;23;20032;-88
2023/06/03 03:58:26;;;;;;;10.88;6.18;;;;;;;13.77;81.15;98884.78;6160292;23;20040;-88
2023/06/03 04:00:59;;;;;;;11.52;6.32;;;;;;;13.55;80.57;98869.56;6135903;23;20016;-88
2023/06/03 04:03:27;;;;;;;10.93;6.10;;;;;;;13.72;81.09;98892.47;6112160;23;20111;-86
2023/06/03 04:05:53;;;;;;;9.45;6.20;;;;;;;13.65;81.71;98876.56;6188075;23;20044;-87
2023/06/03 04:08:29;;;;;;;10.15;5.68;;;;;;;13.78;81.44;98889.13;6160551;23;20028;-89
2023/06/03 04:10:59;;;;;;;7.47;5.15;;;;;;;13.77;80.81;98881.22;6079013;23;20029;-87
2023/06/03 04:13:25;;;;;;;9.38;5.10;;;;;;;13.71;80.78;98880.69;6128244;23;20022;-88
2023/06/03 04:15:52;;;;;;;7.63;4.88;;;;;;;13.69;80.44;98888.44;6130305;23;20080;-86
2023/06/03 04:18:20;;;;;;;11.23;4.00;;;;;;;13.65;80.40;98895.78;6105367;23;20415;-86
2023/06/03 04:20:48;;;;;;;8.32;4.50;;;;;;;13.52;80.63;98874.97;6131904;23;20076;-88
2023/06/03 04:23:17;;;;;;;10.25;4.97;;;;;;;13.61;80.27;98886.63;6130273;23;20072;-87
2023/06/03 04:26:41;;;;;;;7.75;4.13;;;;;;;13.59;80.61;98891.66;6158767;23;20029;-89
2023/06/03 04:29:08;;;;;;;7.82;3.75;;;;;;;13.38;79.84;98872.56;6106434;23;20026;-86
2023/06/03 04:31:34;;;;;;;5.87;3.87;;;;;;;13.51;80.06;98895.31;6107648;23;20355;-89
2023/06/03 04:34:02;;;;;;;4.88;3.60;;;;;;;13.38;80.17;98878.84;6131170;23;20018;-89
2023/06/03 04:36:29;;;;;;;7.15;3.75;;;;;;;13.45;80.79;98892.00;6106322;23;20056;-90
2023/06/03 04:38:55;;;;;;;5.28;3.38;;;;;;;13.50;80.31;98890.97;6108618;23;20028;-89
2023/06/03 04:41:22;;;;;;;5.87;3.60;;;;;;;13.44;80.26;98901.34;6105042;23;20056;-89
2023/06/03 04:43:52;;;;;;;4.00;2.70;;;;;;;13.32;80.45;98877.47;6110425;23;20073;-89
2023/06/03 04:46:19;;;;;;;4.00;2.70;;;;;;;13.51;79.17;98909.03;6130588;23;20416;-89
2023/06/03 04:48:48;;;;;;;4.53;2.77;;;;;;;13.42;78.52;98898.19;6059962;23;20025;-90
2023/06/03 04:51:14;;;;;;;4.20;2.78;;;;;;;13.34;79.15;98882.59;6104077;23;20319;-89
2023/06/03 04:53:43;;;;;;;3.72;2.90;;;;;;;13.30;79.44;98893.47;6082448;23;20024;-90
2023/06/03 04:56:11;;;;;;;4.68;2.88;;;;;;;13.37;80.27;98920.34;6130685;23;20013;-89
2023/06/03 04:58:40;;;;;;;5.32;2.92;;;;;;;13.33;79.45;98901.00;6082309;23;20014;-89
2023/06/03 05:01:12;;;;;;;5.15;2.72;;;;;;;13.28;79.03;98889.47;6081987;23;20049;-87
2023/06/03 05:03:38;;;;;;;5.40;2.67;;;;;;;13.16;78.46;98869.06;6105719;23;20547;-88
2023/06/03 05:06:10;;;;;;;4.15;2.78;;;;;;;13.40;78.65;98908.69;6131988;23;20080;-89
2023/06/03 05:08:39;;;;;;;6.22;2.63;;;;;;;13.40;78.97;98897.69;6131043;23;20375;-87
2023/06/03 05:11:05;;;;;;;5.10;2.90;;;;;;;13.37;78.83;98906.63;6130358;23;20392;-88
2023/06/03 05:13:41;;;;;;;5.90;2.83;;;;;;;13.34;78.79;98913.63;6111194;23;20032;-88
2023/06/03 05:16:07;;;;;;;6.72;2.75;;;;;;;13.35;77.76;98912.47;6134274;23;20031;-87
2023/06/03 05:18:35;;;;;;;8.27;2.50;;;;;;;13.38;77.60;98909.03;6110579;23;20017;-90
2023/06/03 05:21:03;;;;;;;4.35;2.78;;;;;;;13.54;76.97;98927.56;6134511;23;20013;-90
2023/06/03 05:23:29;;;;;;;6.07;3.03;;;;;;;13.37;77.09;98901.13;6109961;23;20017;-85
2023/06/03 05:25:55;;;;;;;9.52;2.40;;;;;;;13.30;76.06;98909.94;6110724;23;20040;-87
2023/06/03 05:28:21;;;;;;;10.95;2.90;;;;;;;13.13;76.91;98899.13;6161865;23;20029;-88
2023/06/03 05:30:47;;;;;;;3.70;2.45;;;;;;;13.30;76.45;98904.44;6136305;23;20446;-89
2023/06/03 05:33:24;;;;;;;;;;;;;;;13.30;76.51;98907.19;6134564;23;20020;-85
2023/06/03 05:35:51;;;;;;;;;;;;;;;13.24;76.70;98910.47;6134740;23;20315;-88
2023/06/03 05:38:17;;;;;;;4.50;2.77;;;;;;;13.21;76.32;98913.88;6158744;23;19976;-91
2023/06/03 05:40:43;;;;;;;5.95;2.65;;;;;;;13.08;76.13;98897.41;6110421;23;20255;-87
2023/06/03 05:43:10;;;;;;;6.32;2.50;;;;;;;13.12;75.99;98898.31;6132895;23;20021;-87
2023/06/03 05:45:36;;;;;;;3.78;2.20;;;;;;;12.99;75.69;98880.22;6158189;23;20067;-87
2023/06/03 05:48:02;;;;;;;6.22;2.45;;;;;;;12.99;75.92;98880.22;6158533;23;20075;-87
2023/06/03 05:50:53;;;;;;;4.03;2.67;;;;;;;13.01;75.55;98886.16;6111257;23;20024;-88
2023/06/03 05:53:29;;;;;;;4.22;2.67;;;;;;;12.73;76.07;98855.81;6186132;23;20127;-88
2023/06/03 05:55:59;;;;;;;8.95;3.20;;;;;;;12.89;76.30;98897.94;6158263;23;20075;-88
2023/06/03 05:58:31;;;;;;;6.28;2.90;;;;;;;12.75;75.99;98880.16;6133563;23;20526;-90
2023/06/03 06:00:57;;;;;;;14.07;3.42;;;;;;;12.74;76.34;98897.75;6157839;23;20092;-88
2023/06/03 06:03:23;;;;;;;7.57;3.23;;;;;;;12.75;76.77;98905.66;6109253;23;20024;-88
2023/06/03 06:05:49;;;;;;;6.18;3.30;;;;;;;12.87;76.20;98902.13;6085263;23;20115;-89
2023/06/03 06:08:15;;;;;;;6.18;3.20;;;;;;;12.89;76.44;98908.09;6133609;23;20044;-87
2023/06/03 06:10:42;;;;;;;10.50;2.93;;;;;;;12.94;75.64;98899.66;6103806;23;20459;-89
2023/06/03 06:13:08;;;;;;;8.05;3.42;;;;;;;12.74;76.33;98884.03;6103922;23;20256;-89
2023/06/03 06:15:35;;;;;;;4.70;3.25;;;;;;;12.64;76.21;98894.28;6177577;23;20018;-88
2023/06/03 06:18:01;;;;;;;11.63;3.80;;;;;;;12.82;76.57;98894.13;6153406;23;20116;-89
2023/06/03 06:20:27;;;;;;;5.80;3.90;;;;;;;12.66;77.09;98853.63;6137092;23;20021;-89
2023/06/03 06:22:54;;;;;;;5.97;3.83;;;;;;;12.91;76.55;98883.84;6158649;23;20083;-89
2023/06/03 06:25:21;;;;;;;6.27;3.47;;;;;;;12.74;76.01;98884.84;6108853;23;20052;-87
2023/06/03 06:27:49;;;;;;;8.20;3.88;;;;;;;12.59;75.77;98863.56;6158232;23;20031;-87
2023/06/03 06:30:17;;;;;;;5.80;3.40;;;;;;;12.59;76.09;98858.06;6134994;23;20040;-90
2023/06/03 06:32:51;;;;;;;6.25;3.38;;;;;;;12.68;76.09;98872.47;6111484;23;20013;-89
2023/06/03 06:35:35;;;;;;;10.88;3.65;;;;;;;12.75;76.48;98880.97;6134504;23;20439;-87
2023/06/03 06:38:07;;;;;;;6.43;3.95;;;;;;;12.58;75.93;98849.03;6158847;23;20510;-87
2023/06/03 06:40:34;;;;;;;8.35;4.10;;;;;;;12.63;76.05;98873.50;6158163;23;20013;-88
2023/06/03 06:43:16;;;;;;;5.38;3.95;;;;;;;12.48;76.45;98870.56;6133053;23;20525;-88
2023/06/03 06:45:56;;;;;;;7.75;4.25;;;;;;;12.20;77.13;98838.25;6184160;23;20027;-87
2023/06/03 06:48:23;;;;;;;7.78;4.47;;;;;;;12.21;76.70;98846.13;6133425;23;20459;-88
2023/06/03 06:50:59;;;;;;;10.10;4.97;;;;;;;12.45;76.63;98874.81;6133461;23;20035;-87
2023/06/03 06:53:34;;;;;;;13.07;4.38;;;;;;;12.31;76.71;98855.88;6133913;23;20087;-88
2023/06/03 06:56:29;;;;;;;9.55;4.50;;;;;;;12.35;77.47;98875.19;6143790;23;20028;-88
2023/06/03 06:58:57;;;;;;;14.82;4.47;;;;;;;12.26;77.22;98869.81;6110114;23;20021;-87
2023/06/03 07:01:24;;;;;;;6.75;4.05;;;;;;;12.27;77.34;98882.34;6184782;23;20024;-85
2023/06/03 07:03:54;;;;;;;8.98;4.70;;;;;;;12.27;76.97;98900.75;6134878;23;20509;-88
2023/06/03 07:06:20;;;;;;;12.68;4.90;;;;;;;12.28;78.22;98902.34;6110817;23;20040;-91
2023/06/03 07:08:50;;;;;;;14.13;5.00;;;;;;;12.16;76.85;98920.31;6109806;23;20095;-88
2023/06/03 07:11:18;;;;;;;8.65;4.95;;;;;;;12.05;77.03;98907.34;6110858;23;20027;-88
2023/06/03 07:13:51;;;;;;;10.48;5.32;;;;;;;12.20;76.63;98928.69;6135519;23;20112;-87
2023/06/03 07:16:18;;;;;;;10.60;6.25;;;;;;;12.13;77.52;98926.47;6135395;23;20024;-87
2023/06/03 07:18:44;;;;;;;11.00;5.55;;;;;;;12.24;77.08;98932.34;6109140;23;20020;-87
2023/06/03 07:21:11;;;;;;;11.05;5.38;;;;;;;12.21;77.34;98922.84;6159077;23;20546;-88
2023/06/03 07:23:38;;;;;;;18.52;6.28;;;;;;;12.20;78.39;98931.41;6134596;23;20025;-86
2023/06/03 07:26:04;;;;;;;12.18;5.68;;;;;;;12.08;77.29;98937.59;6157320;23;20064;-88
2023/06/03 07:28:37;;;;;;;9.63;4.88;;;;;;;12.15;75.74;98929.69;6109412;23;20052;-86
2023/06/03 07:31:10;;;;;;;19.63;5.97;;;;;;;12.08;75.71;98954.03;6184791;23;20013;-85
2023/06/03 07:33:49;;;;;;;8.18;5.38;;;;;;;12.12;78.11;98948.69;6184462;23;20025;-86
2023/06/03 07:36:21;;;;;;;16.30;6.20;;;;;;;12.14;76.33;98965.63;6159315;23;20409;-85
2023/06/03 07:39:08;;;;;;;9.18;5.90;;;;;;;11.96;76.04;98956.72;6134763;23;20032;-84
2023/06/03 07:41:44;;;;;;;7.45;5.60;;;;;;;11.79;75.98;98967.72;6111140;23;20020;-87
2023/06/03 07:44:44;;;;;;;9.60;5.20;;;;;;;11.67;76.59;98943.78;6134312;23;20021;-86
2023/06/03 07:47:13;;;;;;;8.68;4.47;;;;;;;11.63;76.24;98951.84;6185282;23;20025;-88
2023/06/03 07:49:39;;;;;;;12.50;4.38;;;;;;;11.42;77.11;98927.16;6136342;23;20093;-90
2023/06/03 07:52:15;;;;;;;10.63;4.10;;;;;;;11.23;77.82;98935.72;6112370;23;20027;-87
2023/06/03 07:54:44;;;;;;;8.73;3.67;;;;;;;10.90;78.31;98912.81;6185566;23;20021;-88
2023/06/03 07:57:13;;;;;;;;;;;;;;;11.01;79.79;98925.81;6110948;23;20045;-88
2023/06/03 07:59:50;;;;;;;4.63;3.28;;;;;;;10.78;80.35;98913.47;6159895;23;19963;-88
2023/06/03 08:02:16;;;;;;;7.80;2.70;;;;;;;10.54;80.55;98912.03;6111591;23;20039;-88
2023/06/03 08:04:53;;;;;;;;;;;;;;;;;;;;;
2023/06/03 08:07:20;;;;;;;8.18;3.10;;;;;;;10.40;81.67;98903.22;6066397;23;20066;-89
2023/06/03 08:09:47;;;;;;;4.03;3.13;;;;;;;10.41;82.22;98912.22;6023749;23;20038;-87
2023/06/03 08:12:13;;;;;;;15.13;3.00;;;;;;;10.62;81.63;98942.41;6072240;23;20105;-88
2023/06/03 08:14:40;;;;;;;6.43;2.72;;;;;;;10.70;81.52;98949.81;6068659;23;20018;-87
2023/06/03 08:17:14;;;;;;;9.93;3.00;;;;;;;10.49;82.45;98949.66;6069557;23;20495;-86
2023/06/03 08:19:44;;;;;;;7.05;2.88;;;;;;;10.49;82.49;98969.56;6021982;23;20019;-86
2023/06/03 08:22:36;;;;;;;21.88;3.70;;;;;;;10.52;82.53;98993.53;6041782;23;20026;-85
2023/06/03 08:25:02;;;;;;;8.15;3.13;;;;;;;10.62;82.66;99016.22;6063681;23;20106;-92
2023/06/03 08:27:34;;;;;;;4.65;2.58;;;;;;;10.63;83.86;99013.19;6067229;23;20135;-86
2023/06/03 08:30:03;;;;;;;6.50;2.70;;;;;;;10.78;81.67;99039.22;6067305;23;20014;-86
2023/06/03 08:32:38;;;;;;;6.78;2.35;;;;;;;10.75;82.06;99048.06;6019106;23;20023;-83
2023/06/03 08:35:08;;;;;;;3.25;1.95;;;;;;;10.67;82.02;99071.53;6070435;23;20072;-94
2023/06/03 08:37:34;;;;;;;3.13;1.77;;;;;;;10.65;83.28;99098.38;6045920;23;20023;-94
2023/06/03 08:40:01;;;;;;;11.02;2.10;;;;;;;10.55;81.19;99098.69;6068826;23;20134;-95
2023/06/03 08:42:36;;;;;;;5.35;2.00;;;;;;;10.63;82.02;99105.28;6022843;23;20054;-92
2023/06/03 08:45:12;;;;;;;6.03;1.90;;;;;;;10.63;82.29;99110.75;6137908;23;20048;-85
2023/06/03 08:48:06;;;;;;;5.13;2.30;;;;;;;10.69;81.55;99107.56;6187185;23;20029;-87
2023/06/03 08:50:34;;;;;;;6.85;2.38;;;;;;;10.78;82.28;99082.97;6164467;23;20076;-86
2023/06/03 08:53:08;;;;;;;5.45;2.22;;;;;;;10.76;79.37;99104.34;6188937;23;20028;-93
2023/06/03 08:55:39;;;;;;;6.22;2.33;;;;;;;10.77;80.95;99101.31;6116375;23;20012;-91
2023/06/03 08:58:16;;;;;;;7.53;2.42;;;;;;;10.71;81.28;99079.91;6191983;23;20017;-96
2023/06/03 09:00:43;;;;;;;;;;;;;;;10.92;80.78;99110.16;6193079;23;20455;-88
2023/06/03 09:03:12;;;;;;;10.40;2.38;;;;;;;10.87;79.23;99102.13;6118289;23;19916;-94
2023/06/03 09:05:39;;;;;;;3.83;2.30;;;;;;;10.62;78.97;99100.97;6194287;23;20395;-91
2023/06/03 09:08:08;;;;;;;6.07;2.67;;;;;;;10.68;79.94;99102.41;6142127;23;20021;-89
2023/06/03 09:10:37;;;;;;;9.90;2.80;;;;;;;10.47;79.82;99102.22;6192026;23;20017;-88
2023/06/03 09:13:05;;;;;;;19.17;3.45;;;;;;;10.34;80.78;99093.00;6192231;23;20017;-94
2023/06/03 09:15:32;;;;;;;7.57;2.50;;;;;;;10.20;81.00;99068.50;6193831;23;20021;-85
2023/06/03 09:17:58;;;;;;;4.97;2.80;;;;;;;10.22;81.11;99090.84;6112123;23;20028;-87
2023/06/03 09:20:25;;;;;;;6.63;3.22;;;;;;;9.87;82.16;99048.94;6142081;23;20016;-85
2023/06/03 09:22:56;;;;;;;6.80;2.70;;;;;;;10.28;82.01;99110.66;6144132;23;20462;-88
2023/06/03 09:25:22;;;;;;;6.80;2.67;;;;;;;10.18;81.83;99100.00;6190971;23;20501;-93
2023/06/03 09:27:48;;;;;;;5.18;1.90;;;;;;;9.92;79.87;99065.19;6194886;23;20029;-90
2023/06/03 09:30:14;;;;;;;4.00;2.15;;;;;;;10.07;81.67;99039.38;6140450;23;20063;-92
2023/06/03 09:32:41;;;;;;;4.07;2.05;;;;;;;10.32;79.70;99078.84;6193579;23;20048;-93
2023/06/03 09:35:07;;;;;;;10.10;2.50;;;;;;;10.23;79.31;99032.38;6169147;23;20013;-87
2023/06/03 09:37:35;;;;;;;8.10;2.30;;;;;;;10.44;79.01;99059.13;6168109;23;20017;-89
2023/06/03 09:40:09;;;;;;;5.65;2.00;;;;;;;10.40;79.27;99037.09;6163069;23;20043;-90
2023/06/03 09:42:41;;;;;;;9.30;2.47;;;;;;;10.87;78.48;99064.66;6161319;23;20013;-92
2023/06/03 09:45:40;;;;;;;5.15;1.88;;;;;;;10.75;76.65;99073.47;6190686;23;20075;-94
2023/06/03 09:48:15;;;;;;;2.45;1.55;;;;;;;10.53;75.40;99092.75;6192247;23;20092;-92
2023/06/03 09:50:51;;;;;;;5.90;1.55;;;;;;;10.35;76.38;99120.00;6193711;23;20076;-92
2023/06/03 09:53:19;;;;;;;7.43;1.67;;;;;;;10.06;77.10;99101.38;6188228;23;20023;-86
2023/06/03 09:55:45;;;;;;;2.33;1.58;;;;;;;10.19;78.23;99085.19;6163169;23;20020;-90
2023/06/03 09:58:13;;;;;;;2.50;1.50;;;;;;;10.39;78.22;99100.25;6138790;23;20044;-91
2023/06/03 10:00:48;;;;;;;2.97;1.70;;;;;;;10.43;77.38;99090.28;6136028;23;20017;-89
2023/06/03 10:03:22;;;;;;;3.63;1.58;;;;;;;10.31;75.64;99108.09;6164424;23;20402;-89
2023/06/03 10:05:51;;;;;;;6.05;1.95;;;;;;;9.99;76.72;99101.03;6140418;23;20363;-85
2023/06/03 10:08:30;;;;;;;9.73;1.40;;;;;;;9.91;76.31;99129.09;6192460;23;20024;-92
2023/06/03 10:10:59;;;;;;;3.95;1.83;;;;;;;9.73;76.22;99098.16;6183178;23;20044;-86
2023/06/03 10:13:26;;;;;;;3.88;2.00;;;;;;;9.89;76.98;99131.34;6185052;23;20063;-87
2023/06/03 10:15:58;;;;;;;2.72;1.58;;;;;;;10.07;77.07;99115.84;6158506;23;20021;-84
2023/06/03 10:18:41;;;;;;;4.10;1.90;;;;;;;10.24;75.83;99113.19;6181642;23;20096;-85
2023/06/03 10:21:12;;;;;;;7.05;1.90;;;;;;;10.57;75.89;99146.44;6184926;23;20023;-84
2023/06/03 10:23:40;;;;;;;6.78;1.85;;;;;;;10.56;74.35;99142.13;6185030;23;20028;-84
2023/06/03 10:26:07;;;;;;;4.10;2.13;;;;;;;10.44;74.71;99162.97;6185099;23;20040;-85
2023/06/03 10:28:35;;;;;;;3.80;1.90;;;;;;;10.70;74.89;99150.19;6185321;23;20032;-84
2023/06/03 10:31:03;;;;;;;3.20;1.73;;;;;;;10.51;74.18;99139.50;6188017;23;20017;-87
2023/06/03 10:33:38;;;;;;;6.35;2.10;;;;;;;10.44;74.00;99138.38;6160879;23;20028;-90
2023/06/03 10:36:07;;;;;;;12.00;2.00;;;;;;;10.30;73.31;99147.50;6194215;23;20044;-88
2023/06/03 10:38:33;;;;;;;5.35;2.13;;;;;;;10.35;73.95;99169.19;6171683;23;20017;-89
2023/06/03 10:41:12;;;;;;;4.00;1.95;;;;;;;10.40;74.97;99178.34;6164948;23;20024;-90
2023/06/03 10:43:51;;;;;;;4.03;2.10;;;;;;;10.65;76.03;99202.25;6167669;23;20029;-90
2023/06/03 10:46:29;;;;;;;2.10;1.63;;;;;;;10.31;72.36;99183.81;6144429;23;20036;-88
2023/06/03 10:49:09;;;;;;;5.75;2.30;;;;;;;10.05;72.15;99184.44;6193695;23;20048;-90
2023/06/03 10:54:55;;;;;;;2.35;1.67;;;;;;;9.87;74.36;99246.34;6067300;23;20025;-88
2023/06/03 10:57:31;;;;;;;3.45;2.17;;;;;;;9.76;74.64;99244.94;6093433;23;20025;-88
2023/06/03 10:59:57;;;;;;;3.78;1.75;;;;;;;9.62;75.31;99236.81;6091668;23;20010;-92
2023/06/03 11:02:25;;;;;;;7.00;2.17;;;;;;;9.67;75.44;99224.16;6067780;23;20076;-90
2023/06/03 11:05:23;;;;;;;5.40;2.33;;;;;;;9.88;75.53;99238.94;6065855;23;20041;-87
2023/06/03 11:07:49;;;;;;;4.32;2.45;;;;;;;9.77;77.42;99194.72;6093978;23;20026;-88
2023/06/03 11:10:35;;;;;;;;;;;;;;;10.22;75.28;99260.22;6068659;23;20235;-89
2023/06/03 11:13:05;;;;;;;3.53;2.13;;;;;;;9.96;73.76;99251.84;6043568;23;20025;-89
2023/06/03 11:16:00;;;;;;;6.90;2.65;;;;;;;10.07;74.78;99258.69;6068268;23;20486;-87
2023/06/03 11:18:31;;;;;;;8.00;2.47;;;;;;;10.01;74.88;99254.47;6078521;23;20419;-86
2023/06/03 11:21:12;;;;;;;6.47;2.63;;;;;;;9.98;73.65;99266.00;6094079;23;20018;-85
2023/06/03 11:23:45;;;;;;;4.03;2.60;;;;;;;10.06;73.22;99303.47;6091612;23;20029;-88
2023/06/03 11:26:35;;;;;;;3.92;2.30;;;;;;;9.79;72.16;99328.16;6021984;23;20396;-88
2023/06/03 11:29:46;;;;;;;11.45;2.25;;;;;;;9.73;72.84;99321.19;6021696;23;20026;-89
2023/06/03 11:32:17;;;;;;;5.07;2.40;;;;;;;9.73;72.70;99304.81;6104433;23;20024;-89
2023/06/03 11:34:44;;;;;;;7.22;2.33;;;;;;;9.80;72.40;99295.09;6130231;23;20427;-89
2023/06/03 11:37:15;;;;;;;5.32;2.40;;;;;;;9.74;72.19;99276.41;6090648;23;20026;-89
2023/06/03 11:40:02;;;;;;;6.78;2.95;;;;;;;9.96;72.85;99311.91;6071917;23;20018;-89
2023/06/03 11:42:30;;;;;;;5.97;2.38;;;;;;;10.01;72.29;99325.47;6045560;23;20018;-90
2023/06/03 11:45:19;;;;;;;5.50;2.42;;;;;;;10.01;71.20;99330.91;6047159;23;20018;-89
2023/06/03 11:47:56;;;;;;;9.45;2.28;;;;;;;9.64;71.12;99312.94;6093291;23;20766;-88
2023/06/03 11:50:28;;;;;;;8.23;2.58;;;;;;;9.63;72.46;99306.69;6047450;23;20076;-89
2023/06/03 11:57:41;;;;;;;6.07;2.78;;;;;;;9.53;72.96;99263.22;6099980;23;20032;-88
2023/06/03 12:00:12;;;;;;;5.93;2.65;;;;;;;9.65;71.89;99298.97;6095359;23;20025;-87